sensor_id;sensor_type;location;lat;lon;timestamp;pressure;altitude;pressure_sealevel;temperature;humidity
67373;BME280;54257;54.496;18.412;2022-08-19T00:00:41;99473.89;;;22.09;70.76
67373;BME280;54257;54.496;18.412;2022-08-19T00:03:09;99477.09;;;22.06;70.67
67373;BME280;54257;54.496;18.412;2022-08-19T00:05:37;99477.23;;;22.03;70.75
67373;BME280;54257;54.496;18.412;2022-08-19T00:08:08;99480.02;;;21.98;70.72
67373;BME280;54257;54.496;18.412;2022-08-19T00:10:35;99477.99;;;21.92;70.69
67373;BME280;54257;54.496;18.412;2022-08-19T00:13:03;99473.04;;;21.89;70.95
67373;BME280;54257;54.496;18.412;2022-08-19T00:15:31;99470.80;;;21.89;71.03
67373;BME280;54257;54.496;18.412;2022-08-19T00:17:58;99464.02;;;21.89;71.33
67373;BME280;54257;54.496;18.412;2022-08-19T00:20:26;99467.71;;;21.88;70.97
67373;BME280;54257;54.496;18.412;2022-08-19T00:22:54;99466.92;;;21.86;71.09
67373;BME280;54257;54.496;18.412;2022-08-19T00:25:23;99468.64;;;21.87;71.09
67373;BME280;54257;54.496;18.412;2022-08-19T00:27:53;99471.82;;;21.85;71.16
67373;BME280;54257;54.496;18.412;2022-08-19T00:30:23;99473.78;;;21.84;71.22
67373;BME280;54257;54.496;18.412;2022-08-19T00:32:51;99476.11;;;21.81;71.04
67373;BME280;54257;54.496;18.412;2022-08-19T00:35:19;99477.55;;;21.80;71.00
67373;BME280;54257;54.496;18.412;2022-08-19T00:37:48;99483.42;;;21.77;71.14
67373;BME280;54257;54.496;18.412;2022-08-19T00:40:17;99488.39;;;21.69;71.29
67373;BME280;54257;54.496;18.412;2022-08-19T00:42:45;99490.19;;;21.68;71.25
67373;BME280;54257;54.496;18.412;2022-08-19T00:45:19;99486.91;;;21.67;71.36
67373;BME280;54257;54.496;18.412;2022-08-19T00:47:47;99487.83;;;21.66;71.43
67373;BME280;54257;54.496;18.412;2022-08-19T00:50:17;99491.23;;;21.63;71.65
67373;BME280;54257;54.496;18.412;2022-08-19T00:52:49;99492.66;;;21.62;71.61
67373;BME280;54257;54.496;18.412;2022-08-19T00:55:22;99497.86;;;21.63;71.98
67373;BME280;54257;54.496;18.412;2022-08-19T00:57:59;99494.06;;;21.62;71.96
67373;BME280;54257;54.496;18.412;2022-08-19T01:00:29;99496.15;;;21.62;71.79
67373;BME280;54257;54.496;18.412;2022-08-19T01:02:57;99497.64;;;21.60;71.94
67373;BME280;54257;54.496;18.412;2022-08-19T01:05:27;99494.19;;;21.59;71.87
67373;BME280;54257;54.496;18.412;2022-08-19T01:07:57;99495.74;;;21.59;72.12
67373;BME280;54257;54.496;18.412;2022-08-19T01:10:29;99492.17;;;21.56;72.28
67373;BME280;54257;54.496;18.412;2022-08-19T01:12:58;99494.36;;;21.53;72.35
67373;BME280;54257;54.496;18.412;2022-08-19T01:15:31;99491.84;;;21.51;72.39
67373;BME280;54257;54.496;18.412;2022-08-19T01:18:08;99489.79;;;21.50;72.49
67373;BME280;54257;54.496;18.412;2022-08-19T01:20:43;99491.92;;;21.48;72.52
67373;BME280;54257;54.496;18.412;2022-08-19T01:23:13;99489.41;;;21.46;72.71
67373;BME280;54257;54.496;18.412;2022-08-19T01:25:45;99486.19;;;21.44;72.59
67373;BME280;54257;54.496;18.412;2022-08-19T01:28:20;99492.33;;;21.43;72.71
67373;BME280;54257;54.496;18.412;2022-08-19T01:30:49;99494.11;;;21.41;72.90
67373;BME280;54257;54.496;18.412;2022-08-19T01:33:18;99493.90;;;21.37;72.93
67373;BME280;54257;54.496;18.412;2022-08-19T01:35:47;99492.65;;;21.33;72.84
67373;BME280;54257;54.496;18.412;2022-08-19T01:38:24;99493.31;;;21.29;72.82
67373;BME280;54257;54.496;18.412;2022-08-19T01:40:53;99489.73;;;21.27;72.88
67373;BME280;54257;54.496;18.412;2022-08-19T01:43:21;99497.09;;;21.24;73.32
67373;BME280;54257;54.496;18.412;2022-08-19T01:45:49;99493.58;;;21.21;73.41
67373;BME280;54257;54.496;18.412;2022-08-19T01:48:18;99495.73;;;21.18;73.53
67373;BME280;54257;54.496;18.412;2022-08-19T01:50:46;99492.70;;;21.15;73.43
67373;BME280;54257;54.496;18.412;2022-08-19T01:53:15;99494.02;;;21.13;73.68
67373;BME280;54257;54.496;18.412;2022-08-19T01:55:44;99498.08;;;21.11;73.61
67373;BME280;54257;54.496;18.412;2022-08-19T01:58:19;99498.83;;;21.09;73.74
67373;BME280;54257;54.496;18.412;2022-08-19T02:00:54;99498.87;;;21.08;73.71
67373;BME280;54257;54.496;18.412;2022-08-19T02:03:22;99494.22;;;21.07;73.68
67373;BME280;54257;54.496;18.412;2022-08-19T02:05:55;99493.41;;;21.05;73.48
67373;BME280;54257;54.496;18.412;2022-08-19T02:08:23;99494.66;;;21.04;73.30
67373;BME280;54257;54.496;18.412;2022-08-19T02:10:51;99492.60;;;21.04;73.03
67373;BME280;54257;54.496;18.412;2022-08-19T02:13:19;99492.25;;;21.04;73.19
67373;BME280;54257;54.496;18.412;2022-08-19T02:15:48;99491.88;;;21.05;73.08
67373;BME280;54257;54.496;18.412;2022-08-19T02:18:16;99492.60;;;21.04;73.00
67373;BME280;54257;54.496;18.412;2022-08-19T02:20:45;99495.38;;;21.04;72.98
67373;BME280;54257;54.496;18.412;2022-08-19T02:23:16;99492.60;;;21.04;73.00
67373;BME280;54257;54.496;18.412;2022-08-19T02:25:46;99492.95;;;21.04;73.10
67373;BME280;54257;54.496;18.412;2022-08-19T02:28:15;99494.08;;;21.01;73.23
67373;BME280;54257;54.496;18.412;2022-08-19T02:30:43;99491.39;;;20.98;73.11
67373;BME280;54257;54.496;18.412;2022-08-19T02:33:14;99491.94;;;20.97;73.17
67373;BME280;54257;54.496;18.412;2022-08-19T02:35:46;99490.58;;;20.96;73.42
67373;BME280;54257;54.496;18.412;2022-08-19T02:38:14;99485.60;;;20.95;73.53
67373;BME280;54257;54.496;18.412;2022-08-19T02:40:58;99481.58;;;20.90;73.44
67373;BME280;54257;54.496;18.412;2022-08-19T02:43:29;99481.02;;;20.87;73.24
67373;BME280;54257;54.496;18.412;2022-08-19T02:45:57;99480.39;;;20.84;73.49
67373;BME280;54257;54.496;18.412;2022-08-19T02:48:26;99477.55;;;20.81;73.52
67373;BME280;54257;54.496;18.412;2022-08-19T02:50:54;99477.52;;;20.77;73.31
67373;BME280;54257;54.496;18.412;2022-08-19T02:53:26;99476.24;;;20.73;73.32
67373;BME280;54257;54.496;18.412;2022-08-19T02:55:54;99482.29;;;20.69;73.16
67373;BME280;54257;54.496;18.412;2022-08-19T02:58:23;99484.48;;;20.65;73.36
67373;BME280;54257;54.496;18.412;2022-08-19T03:00:54;99491.14;;;20.63;73.54
67373;BME280;54257;54.496;18.412;2022-08-19T03:03:22;99493.61;;;20.63;73.61
67373;BME280;54257;54.496;18.412;2022-08-19T03:05:50;99493.62;;;20.62;73.77
67373;BME280;54257;54.496;18.412;2022-08-19T03:08:18;99489.84;;;20.61;73.94
67373;BME280;54257;54.496;18.412;2022-08-19T03:10:47;99489.54;;;20.59;73.81
67373;BME280;54257;54.496;18.412;2022-08-19T03:13:17;99480.65;;;20.61;73.76
67373;BME280;54257;54.496;18.412;2022-08-19T03:15:54;99481.64;;;20.62;73.60
67373;BME280;54257;54.496;18.412;2022-08-19T03:18:21;99484.90;;;20.58;73.71
67373;BME280;54257;54.496;18.412;2022-08-19T03:20:53;99492.18;;;20.47;74.01
67373;BME280;54257;54.496;18.412;2022-08-19T03:23:22;99491.10;;;20.41;74.19
67373;BME280;54257;54.496;18.412;2022-08-19T03:25:52;99486.92;;;20.42;74.41
67373;BME280;54257;54.496;18.412;2022-08-19T03:28:21;99485.84;;;20.45;74.61
67373;BME280;54257;54.496;18.412;2022-08-19T03:31:09;99483.54;;;20.47;75.01
67373;BME280;54257;54.496;18.412;2022-08-19T03:33:38;99486.28;;;20.48;75.01
67373;BME280;54257;54.496;18.412;2022-08-19T03:36:09;99491.98;;;20.48;75.26
67373;BME280;54257;54.496;18.412;2022-08-19T03:38:42;99497.77;;;20.46;75.27
67373;BME280;54257;54.496;18.412;2022-08-19T03:41:14;99495.75;;;20.43;75.44
67373;BME280;54257;54.496;18.412;2022-08-19T03:43:46;99492.96;;;20.44;75.15
67373;BME280;54257;54.496;18.412;2022-08-19T03:46:28;99487.02;;;20.46;75.20
67373;BME280;54257;54.496;18.412;2022-08-19T03:48:59;99485.69;;;20.49;75.23
67373;BME280;54257;54.496;18.412;2022-08-19T03:51:30;99483.83;;;20.54;74.97
67373;BME280;54257;54.496;18.412;2022-08-19T03:54:01;99481.95;;;20.58;75.28
67373;BME280;54257;54.496;18.412;2022-08-19T03:56:30;99485.30;;;20.62;75.58
67373;BME280;54257;54.496;18.412;2022-08-19T03:58:58;99481.61;;;20.63;75.87
67373;BME280;54257;54.496;18.412;2022-08-19T04:01:28;99484.11;;;20.66;75.84
67373;BME280;54257;54.496;18.412;2022-08-19T04:03:58;99487.33;;;20.69;76.09
67373;BME280;54257;54.496;18.412;2022-08-19T04:06:29;99488.91;;;20.68;76.20
67373;BME280;54257;54.496;18.412;2022-08-19T04:08:59;99488.71;;;20.68;76.35
67373;BME280;54257;54.496;18.412;2022-08-19T04:11:35;99489.23;;;20.69;76.41
67373;BME280;54257;54.496;18.412;2022-08-19T04:14:06;99497.25;;;20.67;76.65
67373;BME280;54257;54.496;18.412;2022-08-19T04:16:42;99501.71;;;20.64;76.51
67373;BME280;54257;54.496;18.412;2022-08-19T04:19:12;99502.58;;;20.64;76.80
67373;BME280;54257;54.496;18.412;2022-08-19T04:21:44;99500.89;;;20.68;76.92
67373;BME280;54257;54.496;18.412;2022-08-19T04:24:14;99499.72;;;20.72;77.10
67373;BME280;54257;54.496;18.412;2022-08-19T04:26:41;99497.34;;;20.76;76.88
67373;BME280;54257;54.496;18.412;2022-08-19T04:29:16;99500.32;;;20.80;76.55
67373;BME280;54257;54.496;18.412;2022-08-19T04:31:46;99497.70;;;20.86;76.33
67373;BME280;54257;54.496;18.412;2022-08-19T04:34:16;99496.27;;;20.92;76.64
67373;BME280;54257;54.496;18.412;2022-08-19T04:36:45;99494.15;;;20.98;76.84
67373;BME280;54257;54.496;18.412;2022-08-19T04:39:18;99491.04;;;21.03;76.83
67373;BME280;54257;54.496;18.412;2022-08-19T04:41:48;99488.95;;;21.09;76.80
67373;BME280;54257;54.496;18.412;2022-08-19T04:44:35;99490.14;;;21.14;76.59
67373;BME280;54257;54.496;18.412;2022-08-19T04:47:03;99494.50;;;21.19;76.87
67373;BME280;54257;54.496;18.412;2022-08-19T04:49:33;99495.67;;;21.25;76.94
67373;BME280;54257;54.496;18.412;2022-08-19T04:52:01;99489.30;;;21.30;76.62
67373;BME280;54257;54.496;18.412;2022-08-19T04:54:29;99491.14;;;21.37;76.47
67373;BME280;54257;54.496;18.412;2022-08-19T04:56:57;99489.20;;;21.43;76.77
67373;BME280;54257;54.496;18.412;2022-08-19T04:59:25;99488.98;;;21.49;76.69
67373;BME280;54257;54.496;18.412;2022-08-19T05:01:53;99491.98;;;21.57;76.94
67373;BME280;54257;54.496;18.412;2022-08-19T05:04:21;99493.66;;;21.63;76.97
67373;BME280;54257;54.496;18.412;2022-08-19T05:06:52;99494.29;;;21.70;77.06
67373;BME280;54257;54.496;18.412;2022-08-19T05:09:21;99490.09;;;21.75;77.00
67373;BME280;54257;54.496;18.412;2022-08-19T05:11:49;99490.54;;;21.82;76.55
67373;BME280;54257;54.496;18.412;2022-08-19T05:14:21;99491.81;;;21.90;76.93
67373;BME280;54257;54.496;18.412;2022-08-19T05:16:49;99495.70;;;21.97;76.75
67373;BME280;54257;54.496;18.412;2022-08-19T05:19:18;99499.59;;;22.05;76.90
67373;BME280;54257;54.496;18.412;2022-08-19T05:22:05;99499.46;;;22.14;76.58
67373;BME280;54257;54.496;18.412;2022-08-19T05:24:56;99490.45;;;22.22;76.39
67373;BME280;54257;54.496;18.412;2022-08-19T05:27:24;99491.13;;;22.31;76.04
67373;BME280;54257;54.496;18.412;2022-08-19T05:29:52;99496.67;;;22.41;75.53
67373;BME280;54257;54.496;18.412;2022-08-19T05:32:20;99496.67;;;22.49;75.09
67373;BME280;54257;54.496;18.412;2022-08-19T05:34:51;99493.54;;;22.58;74.46
67373;BME280;54257;54.496;18.412;2022-08-19T05:37:21;99491.47;;;22.66;73.79
67373;BME280;54257;54.496;18.412;2022-08-19T05:39:54;99491.34;;;22.74;73.50
67373;BME280;54257;54.496;18.412;2022-08-19T05:42:23;99486.81;;;22.82;73.24
67373;BME280;54257;54.496;18.412;2022-08-19T05:44:53;99492.61;;;22.90;72.78
67373;BME280;54257;54.496;18.412;2022-08-19T05:47:22;99492.84;;;22.97;72.66
67373;BME280;54257;54.496;18.412;2022-08-19T05:49:53;99492.91;;;23.04;72.59
67373;BME280;54257;54.496;18.412;2022-08-19T05:52:22;99502.73;;;23.11;72.61
67373;BME280;54257;54.496;18.412;2022-08-19T05:54:50;99502.68;;;23.20;72.27
67373;BME280;54257;54.496;18.412;2022-08-19T05:57:19;99503.81;;;23.30;71.97
67373;BME280;54257;54.496;18.412;2022-08-19T05:59:47;99505.54;;;23.39;71.53
67373;BME280;54257;54.496;18.412;2022-08-19T06:02:18;99511.15;;;23.46;71.08
67373;BME280;54257;54.496;18.412;2022-08-19T06:04:46;99513.55;;;23.55;71.00
67373;BME280;54257;54.496;18.412;2022-08-19T06:07:15;99517.67;;;23.69;70.37
67373;BME280;54257;54.496;18.412;2022-08-19T06:09:47;99523.07;;;23.81;70.02
67373;BME280;54257;54.496;18.412;2022-08-19T06:12:15;99527.61;;;23.92;69.66
67373;BME280;54257;54.496;18.412;2022-08-19T06:14:43;99529.82;;;24.09;68.80
67373;BME280;54257;54.496;18.412;2022-08-19T06:17:12;99528.19;;;24.25;67.86
67373;BME280;54257;54.496;18.412;2022-08-19T06:19:42;99530.36;;;24.43;66.71
67373;BME280;54257;54.496;18.412;2022-08-19T06:22:14;99527.05;;;24.61;66.13
67373;BME280;54257;54.496;18.412;2022-08-19T06:24:42;99525.58;;;24.73;65.31
67373;BME280;54257;54.496;18.412;2022-08-19T06:27:09;99523.51;;;24.80;64.75
67373;BME280;54257;54.496;18.412;2022-08-19T06:29:38;99526.84;;;24.86;63.47
67373;BME280;54257;54.496;18.412;2022-08-19T06:32:08;99526.95;;;24.92;63.32
67373;BME280;54257;54.496;18.412;2022-08-19T06:34:39;99530.77;;;24.96;63.48
67373;BME280;54257;54.496;18.412;2022-08-19T06:37:28;99525.38;;;25.10;62.82
67373;BME280;54257;54.496;18.412;2022-08-19T06:40:14;99528.29;;;25.28;61.97
67373;BME280;54257;54.496;18.412;2022-08-19T06:43:03;99526.75;;;25.38;61.54
67373;BME280;54257;54.496;18.412;2022-08-19T06:45:51;99514.77;;;25.60;61.64
67373;BME280;54257;54.496;18.412;2022-08-19T06:48:40;99511.27;;;25.83;60.33
67373;BME280;54257;54.496;18.412;2022-08-19T06:51:29;99513.80;;;26.01;60.07
67373;BME280;54257;54.496;18.412;2022-08-19T06:54:19;99515.11;;;26.19;59.14
67373;BME280;54257;54.496;18.412;2022-08-19T06:57:08;99511.83;;;26.31;58.43
67373;BME280;54257;54.496;18.412;2022-08-19T07:00:03;99513.17;;;26.45;57.93
67373;BME280;54257;54.496;18.412;2022-08-19T07:02:51;99508.33;;;26.60;57.47
67373;BME280;54257;54.496;18.412;2022-08-19T07:05:41;99506.58;;;26.74;57.01
67373;BME280;54257;54.496;18.412;2022-08-19T07:08:30;99509.49;;;26.88;56.50
67373;BME280;54257;54.496;18.412;2022-08-19T07:11:18;99510.19;;;26.91;56.39
67373;BME280;54257;54.496;18.412;2022-08-19T07:14:07;99508.06;;;27.01;56.30
67373;BME280;54257;54.496;18.412;2022-08-19T07:16:56;99507.55;;;27.21;56.34
67373;BME280;54257;54.496;18.412;2022-08-19T07:19:45;99507.34;;;27.48;56.31
67373;BME280;54257;54.496;18.412;2022-08-19T07:22:34;99512.10;;;27.69;54.66
67373;BME280;54257;54.496;18.412;2022-08-19T07:25:22;99510.15;;;27.69;54.11
67373;BME280;54257;54.496;18.412;2022-08-19T07:28:11;99507.89;;;27.68;53.83
67373;BME280;54257;54.496;18.412;2022-08-19T07:30:59;99507.20;;;27.80;54.18
67373;BME280;54257;54.496;18.412;2022-08-19T07:33:51;99512.59;;;27.95;53.75
67373;BME280;54257;54.496;18.412;2022-08-19T07:36:43;99513.08;;;28.15;53.88
67373;BME280;54257;54.496;18.412;2022-08-19T07:39:33;99513.73;;;28.33;53.44
67373;BME280;54257;54.496;18.412;2022-08-19T07:42:23;99509.27;;;28.44;52.24
67373;BME280;54257;54.496;18.412;2022-08-19T07:45:12;99508.84;;;28.48;51.68
67373;BME280;54257;54.496;18.412;2022-08-19T07:48:00;99508.64;;;28.46;51.04
67373;BME280;54257;54.496;18.412;2022-08-19T07:50:57;99504.27;;;28.51;50.58
67373;BME280;54257;54.496;18.412;2022-08-19T07:53:48;99505.43;;;28.68;50.83
67373;BME280;54257;54.496;18.412;2022-08-19T07:56:38;99505.23;;;28.85;50.45
67373;BME280;54257;54.496;18.412;2022-08-19T07:59:27;99502.52;;;29.02;50.42
67373;BME280;54257;54.496;18.412;2022-08-19T08:02:16;99502.23;;;29.22;51.09
67373;BME280;54257;54.496;18.412;2022-08-19T08:05:05;99498.36;;;29.45;51.46
67373;BME280;54257;54.496;18.412;2022-08-19T08:08:12;99502.11;;;29.60;50.32
67373;BME280;54257;54.496;18.412;2022-08-19T08:11:19;99503.67;;;29.65;49.31
67373;BME280;54257;54.496;18.412;2022-08-19T08:14:09;99506.48;;;29.53;49.49
67373;BME280;54257;54.496;18.412;2022-08-19T08:16:57;99495.65;;;29.52;49.52
67373;BME280;54257;54.496;18.412;2022-08-19T08:19:47;99496.61;;;29.63;49.91
67373;BME280;54257;54.496;18.412;2022-08-19T08:22:43;99497.64;;;29.78;49.08
67373;BME280;54257;54.496;18.412;2022-08-19T08:25:49;99500.67;;;29.93;48.90
67373;BME280;54257;54.496;18.412;2022-08-19T08:28:38;99503.63;;;30.14;48.24
67373;BME280;54257;54.496;18.412;2022-08-19T08:31:26;99500.27;;;30.11;47.53
67373;BME280;54257;54.496;18.412;2022-08-19T08:34:15;99496.39;;;30.03;47.78
67373;BME280;54257;54.496;18.412;2022-08-19T08:37:03;99495.60;;;30.02;47.28
67373;BME280;54257;54.496;18.412;2022-08-19T08:39:52;99495.07;;;29.90;47.70
67373;BME280;54257;54.496;18.412;2022-08-19T08:42:48;99496.69;;;29.82;47.84
67373;BME280;54257;54.496;18.412;2022-08-19T08:45:49;99498.59;;;29.77;48.03
67373;BME280;54257;54.496;18.412;2022-08-19T08:51:50;99495.34;;;29.66;47.60
67373;BME280;54257;54.496;18.412;2022-08-19T08:54:42;99492.31;;;29.72;48.34
67373;BME280;54257;54.496;18.412;2022-08-19T09:00:44;99489.64;;;30.07;47.93
67373;BME280;54257;54.496;18.412;2022-08-19T09:03:33;99484.30;;;30.22;47.84
67373;BME280;54257;54.496;18.412;2022-08-19T09:09:34;99481.05;;;30.81;46.70
67373;BME280;54257;54.496;18.412;2022-08-19T09:15:40;99477.98;;;31.19;45.37
67373;BME280;54257;54.496;18.412;2022-08-19T09:18:41;99473.63;;;31.21;46.09
67373;BME280;54257;54.496;18.412;2022-08-19T09:21:30;99468.77;;;31.58;46.29
67373;BME280;54257;54.496;18.412;2022-08-19T09:24:18;99470.89;;;31.79;45.55
67373;BME280;54257;54.496;18.412;2022-08-19T09:27:07;99471.41;;;31.97;45.27
67373;BME280;54257;54.496;18.412;2022-08-19T09:29:55;99475.65;;;32.10;44.35
67373;BME280;54257;54.496;18.412;2022-08-19T09:32:44;99476.05;;;32.14;43.45
67373;BME280;54257;54.496;18.412;2022-08-19T09:35:33;99477.27;;;31.76;44.23
67373;BME280;54257;54.496;18.412;2022-08-19T09:38:23;99476.29;;;31.78;44.48
67373;BME280;54257;54.496;18.412;2022-08-19T09:41:15;99474.02;;;31.87;44.78
67373;BME280;54257;54.496;18.412;2022-08-19T09:44:04;99471.27;;;32.18;44.65
67373;BME280;54257;54.496;18.412;2022-08-19T09:46:52;99471.72;;;32.41;43.29
67373;BME280;54257;54.496;18.412;2022-08-19T09:49:41;99465.24;;;32.58;43.80
67373;BME280;54257;54.496;18.412;2022-08-19T09:52:30;99465.25;;;32.87;42.94
67373;BME280;54257;54.496;18.412;2022-08-19T09:55:19;99467.16;;;32.88;41.94
67373;BME280;54257;54.496;18.412;2022-08-19T09:58:07;99465.90;;;32.99;42.61
67373;BME280;54257;54.496;18.412;2022-08-19T10:00:57;99468.34;;;33.16;42.83
67373;BME280;54257;54.496;18.412;2022-08-19T10:03:49;99463.38;;;33.22;41.60
67373;BME280;54257;54.496;18.412;2022-08-19T10:06:39;99460.48;;;33.42;41.78
67373;BME280;54257;54.496;18.412;2022-08-19T10:09:29;99467.06;;;33.35;41.40
67373;BME280;54257;54.496;18.412;2022-08-19T10:12:18;99461.39;;;33.35;41.94
67373;BME280;54257;54.496;18.412;2022-08-19T10:15:07;99453.38;;;33.58;41.85
67373;BME280;54257;54.496;18.412;2022-08-19T10:17:57;99453.21;;;33.64;41.03
67373;BME280;54257;54.496;18.412;2022-08-19T10:20:48;99449.46;;;33.88;41.30
67373;BME280;54257;54.496;18.412;2022-08-19T10:23:39;99449.51;;;33.68;40.32
67373;BME280;54257;54.496;18.412;2022-08-19T10:26:29;99450.77;;;33.49;41.27
67373;BME280;54257;54.496;18.412;2022-08-19T10:29:20;99445.59;;;33.31;41.54
67373;BME280;54257;54.496;18.412;2022-08-19T10:32:08;99445.05;;;33.08;41.75
67373;BME280;54257;54.496;18.412;2022-08-19T10:34:57;99443.70;;;32.95;42.37
67373;BME280;54257;54.496;18.412;2022-08-19T10:37:46;99439.34;;;32.79;43.13
67373;BME280;54257;54.496;18.412;2022-08-19T10:40:34;99438.93;;;32.76;42.93
67373;BME280;54257;54.496;18.412;2022-08-19T10:43:22;99440.59;;;32.60;43.12
67373;BME280;54257;54.496;18.412;2022-08-19T10:46:14;99437.53;;;32.44;43.79
67373;BME280;54257;54.496;18.412;2022-08-19T10:49:04;99433.33;;;32.37;43.98
67373;BME280;54257;54.496;18.412;2022-08-19T10:51:53;99436.84;;;32.22;43.91
67373;BME280;54257;54.496;18.412;2022-08-19T10:55:01;99431.97;;;32.25;44.77
67373;BME280;54257;54.496;18.412;2022-08-19T10:58:18;99427.88;;;32.41;44.26
67373;BME280;54257;54.496;18.412;2022-08-19T11:01:11;99428.73;;;32.56;43.94
67373;BME280;54257;54.496;18.412;2022-08-19T11:04:01;99422.24;;;32.55;43.42
67373;BME280;54257;54.496;18.412;2022-08-19T11:06:50;99417.21;;;32.75;43.88
67373;BME280;54257;54.496;18.412;2022-08-19T11:09:41;99413.09;;;32.91;42.77
67373;BME280;54257;54.496;18.412;2022-08-19T11:12:31;99403.92;;;33.09;42.92
67373;BME280;54257;54.496;18.412;2022-08-19T11:15:21;99399.32;;;33.27;42.24
67373;BME280;54257;54.496;18.412;2022-08-19T11:18:10;99390.67;;;33.17;41.94
67373;BME280;54257;54.496;18.412;2022-08-19T11:21:26;99385.45;;;33.24;41.94
67373;BME280;54257;54.496;18.412;2022-08-19T11:24:21;99379.84;;;33.31;41.20
67373;BME280;54257;54.496;18.412;2022-08-19T11:27:10;99372.30;;;33.41;41.44
67373;BME280;54257;54.496;18.412;2022-08-19T11:29:59;99375.43;;;33.48;40.73
67373;BME280;54257;54.496;18.412;2022-08-19T11:32:48;99382.20;;;33.45;40.52
67373;BME280;54257;54.496;18.412;2022-08-19T11:35:39;99379.59;;;33.24;39.56
67373;BME280;54257;54.496;18.412;2022-08-19T11:38:28;99380.05;;;33.13;40.09
67373;BME280;54257;54.496;18.412;2022-08-19T11:41:19;99373.73;;;33.14;40.73
67373;BME280;54257;54.496;18.412;2022-08-19T11:44:08;99380.30;;;33.06;40.72
67373;BME280;54257;54.496;18.412;2022-08-19T11:46:57;99380.80;;;32.56;41.16
67373;BME280;54257;54.496;18.412;2022-08-19T11:49:48;99376.57;;;32.48;41.84
67373;BME280;54257;54.496;18.412;2022-08-19T11:52:37;99368.22;;;32.50;42.13
67373;BME280;54257;54.496;18.412;2022-08-19T11:55:25;99362.48;;;32.55;42.00
67373;BME280;54257;54.496;18.412;2022-08-19T11:58:17;99358.18;;;32.76;42.44
67373;BME280;54257;54.496;18.412;2022-08-19T12:01:09;99353.50;;;33.00;42.09
67373;BME280;54257;54.496;18.412;2022-08-19T12:03:59;99351.68;;;33.21;41.59
67373;BME280;54257;54.496;18.412;2022-08-19T12:06:48;99348.45;;;33.26;41.38
67373;BME280;54257;54.496;18.412;2022-08-19T12:09:38;99354.14;;;33.20;41.14
67373;BME280;54257;54.496;18.412;2022-08-19T12:12:27;99343.42;;;32.88;41.76
67373;BME280;54257;54.496;18.412;2022-08-19T12:15:16;99341.73;;;32.77;41.59
67373;BME280;54257;54.496;18.412;2022-08-19T12:18:04;99340.40;;;32.70;41.72
67373;BME280;54257;54.496;18.412;2022-08-19T12:20:53;99342.64;;;32.61;41.91
67373;BME280;54257;54.496;18.412;2022-08-19T12:23:43;99342.23;;;32.29;42.75
67373;BME280;54257;54.496;18.412;2022-08-19T12:26:34;99340.61;;;32.23;42.44
67373;BME280;54257;54.496;18.412;2022-08-19T12:29:22;99344.55;;;32.16;42.71
67373;BME280;54257;54.496;18.412;2022-08-19T12:32:16;99341.13;;;32.08;42.85
67373;BME280;54257;54.496;18.412;2022-08-19T12:35:06;99340.05;;;32.23;42.66
67373;BME280;54257;54.496;18.412;2022-08-19T12:37:56;99344.65;;;32.53;42.57
67373;BME280;54257;54.496;18.412;2022-08-19T12:40:46;99336.76;;;32.81;42.09
67373;BME280;54257;54.496;18.412;2022-08-19T12:43:36;99341.39;;;32.85;41.22
67373;BME280;54257;54.496;18.412;2022-08-19T12:46:25;99327.52;;;32.73;41.39
67373;BME280;54257;54.496;18.412;2022-08-19T12:49:13;99325.95;;;32.77;41.74
67373;BME280;54257;54.496;18.412;2022-08-19T12:52:06;99322.64;;;32.86;41.59
67373;BME280;54257;54.496;18.412;2022-08-19T12:54:57;99320.46;;;33.02;41.72
67373;BME280;54257;54.496;18.412;2022-08-19T12:57:46;99320.27;;;33.10;41.21
67373;BME280;54257;54.496;18.412;2022-08-19T13:00:35;99312.64;;;33.14;40.81
67373;BME280;54257;54.496;18.412;2022-08-19T13:03:24;99310.40;;;33.05;40.75
67373;BME280;54257;54.496;18.412;2022-08-19T13:06:17;99309.41;;;33.09;41.10
67373;BME280;54257;54.496;18.412;2022-08-19T13:09:06;99306.55;;;33.05;40.90
67373;BME280;54257;54.496;18.412;2022-08-19T13:11:56;99296.05;;;32.85;41.08
67373;BME280;54257;54.496;18.412;2022-08-19T13:14:44;99288.56;;;32.73;41.15
67373;BME280;54257;54.496;18.412;2022-08-19T13:17:39;99292.46;;;32.71;41.53
67373;BME280;54257;54.496;18.412;2022-08-19T13:20:29;99296.11;;;32.68;41.48
67373;BME280;54257;54.496;18.412;2022-08-19T13:23:18;99298.26;;;32.78;41.72
67373;BME280;54257;54.496;18.412;2022-08-19T13:26:07;99298.98;;;32.74;41.02
67373;BME280;54257;54.496;18.412;2022-08-19T13:28:56;99294.44;;;32.75;41.07
67373;BME280;54257;54.496;18.412;2022-08-19T13:32:05;99287.27;;;32.68;41.65
67373;BME280;54257;54.496;18.412;2022-08-19T13:35:12;99290.66;;;32.78;41.78
67373;BME280;54257;54.496;18.412;2022-08-19T13:38:01;99285.46;;;32.83;41.78
67373;BME280;54257;54.496;18.412;2022-08-19T13:40:54;99281.95;;;32.88;41.33
67373;BME280;54257;54.496;18.412;2022-08-19T13:43:43;99276.35;;;32.81;41.53
67373;BME280;54257;54.496;18.412;2022-08-19T13:46:32;99277.67;;;32.81;41.97
67373;BME280;54257;54.496;18.412;2022-08-19T13:49:20;99269.36;;;32.77;41.71
67373;BME280;54257;54.496;18.412;2022-08-19T13:56:45;99269.11;;;32.69;41.83
67373;BME280;54257;54.496;18.412;2022-08-19T13:59:34;99268.26;;;32.58;42.03
67373;BME280;54257;54.496;18.412;2022-08-19T14:02:22;99263.97;;;32.59;42.58
67373;BME280;54257;54.496;18.412;2022-08-19T14:05:14;99257.80;;;32.73;42.82
67373;BME280;54257;54.496;18.412;2022-08-19T14:08:03;99262.10;;;32.76;42.72
67373;BME280;54257;54.496;18.412;2022-08-19T14:10:51;99260.52;;;32.62;42.58
67373;BME280;54257;54.496;18.412;2022-08-19T14:13:41;99256.67;;;32.53;42.88
67373;BME280;54257;54.496;18.412;2022-08-19T14:16:30;99256.82;;;32.60;43.23